Time;durP1;ratioP1;P1;durP2;ratioP2;P2;SDS_P1;SDS_P2;PMS_P1;PMS_P2;Temp;Humidity;BMP_temperature;BMP_pressure;BME280_temperature;BME280_humidity;BME280_pressure;Samples;Min_cycle;Max_cycle;Signal;HPM_P1;HPM_P2
2022/03/10 00:00:22;;;;;;;65.38;14.10;;;-7.10;99.90;;;;;;4990749;28;20138;-75
2022/03/10 00:02:51;;;;;;;65.32;17.27;;;-7.10;99.90;;;;;;4985237;28;20050;-75
2022/03/10 00:05:19;;;;;;;60.80;15.45;;;-7.20;99.90;;;;;;4989399;28;20102;-75
2022/03/10 00:07:47;;;;;;;53.30;15.10;;;-7.10;99.90;;;;;;4985086;28;20058;-76
2022/03/10 00:10:15;;;;;;;49.35;15.57;;;-7.20;99.90;;;;;;4993219;28;20069;-75
2022/03/10 00:12:51;;;;;;;55.95;14.45;;;-7.20;99.90;;;;;;4989734;28;20085;-76
2022/03/10 00:15:21;;;;;;;55.83;16.75;;;-7.30;99.90;;;;;;4987433;28;20042;-75
2022/03/10 00:17:50;;;;;;;51.80;15.63;;;-7.30;99.90;;;;;;4972229;28;20101;-76
2022/03/10 00:20:18;;;;;;;52.40;15.27;;;-7.30;99.90;;;;;;4979373;28;20130;-75
2022/03/10 00:22:47;;;;;;;45.13;15.45;;;-7.30;99.90;;;;;;4993683;28;20062;-75
2022/03/10 00:25:16;;;;;;;53.85;14.65;;;-7.30;99.90;;;;;;4989061;28;20049;-75
2022/03/10 00:27:44;;;;;;;59.55;16.58;;;-7.40;99.90;;;;;;4972932;28;20054;-75
2022/03/10 00:30:13;;;;;;;50.55;15.77;;;-7.40;99.90;;;;;;4987726;28;20058;-74
2022/03/10 00:32:46;;;;;;;56.10;16.52;;;-7.40;99.90;;;;;;4972329;28;20080;-74
2022/03/10 00:35:20;;;;;;;60.83;19.90;;;-7.40;99.90;;;;;;4990094;28;20042;-75
2022/03/10 00:37:48;;;;;;;75.70;22.77;;;-7.40;99.90;;;;;;4989733;28;20053;-75
2022/03/10 00:40:17;;;;;;;60.88;15.95;;;-7.40;99.90;;;;;;4954549;28;20577;-75
2022/03/10 00:42:45;;;;;;;37.60;14.30;;;-7.40;99.90;;;;;;4986893;28;20056;-75
2022/03/10 00:45:14;;;;;;;54.70;15.02;;;-7.50;99.90;;;;;;4991778;28;20513;-75
2022/03/10 00:47:42;;;;;;;47.65;14.68;;;-7.50;99.90;;;;;;4970370;28;20424;-75
2022/03/10 00:50:11;;;;;;;54.03;14.55;;;-7.60;99.90;;;;;;4997979;28;20050;-76
2022/03/10 00:52:44;;;;;;;44.65;14.70;;;-7.60;99.90;;;;;;4987960;28;20081;-74
2022/03/10 00:55:16;;;;;;;42.90;14.98;;;-7.60;99.90;;;;;;4974799;28;20130;-75
2022/03/10 00:57:44;;;;;;;41.45;14.65;;;-7.60;99.90;;;;;;4992897;28;20050;-74
2022/03/10 01:00:13;;;;;;;43.45;14.68;;;-7.60;99.90;;;;;;4987322;28;20054;-76
2022/03/10 01:02:41;;;;;;;50.72;14.57;;;-7.60;99.90;;;;;;4978402;28;20062;-74
2022/03/10 01:05:10;;;;;;;44.50;14.93;;;-7.60;99.90;;;;;;4988389;28;20419;-74
2022/03/10 01:07:38;;;;;;;51.38;15.48;;;-7.60;99.90;;;;;;4979662;28;20074;-74
2022/03/10 01:10:09;;;;;;;45.80;13.63;;;-7.70;99.90;;;;;;4991541;28;20062;-75
2022/03/10 01:12:42;;;;;;;45.20;14.75;;;-7.70;99.90;;;;;;5003202;28;20074;-75
2022/03/10 01:15:10;;;;;;;59.88;16.25;;;-7.70;99.90;;;;;;4952082;28;20128;-74
2022/03/10 01:17:38;;;;;;;55.70;14.68;;;-7.70;99.90;;;;;;4996632;28;20149;-75
2022/03/10 01:20:08;;;;;;;52.03;14.38;;;-7.70;99.90;;;;;;4989323;28;20042;-75
2022/03/10 01:22:36;;;;;;;38.45;15.05;;;-7.70;99.90;;;;;;4993560;28;20146;-75
2022/03/10 01:25:06;;;;;;;50.80;15.77;;;-7.80;99.90;;;;;;4991946;28;20070;-75
2022/03/10 01:27:34;;;;;;;55.65;15.90;;;-7.70;99.90;;;;;;4992072;28;20054;-76
2022/03/10 01:30:02;;;;;;;43.42;11.95;;;-7.70;99.90;;;;;;4990732;28;20042;-75
2022/03/10 01:32:31;;;;;;;27.77;7.72;;;-7.70;99.90;;;;;;5006374;28;20178;-75
2022/03/10 01:34:58;;;;;;;30.02;10.23;;;-7.60;99.90;;;;;;4996403;28;20053;-75
2022/03/10 01:37:26;;;;;;;35.90;8.15;;;-7.40;99.90;;;;;;4982698;28;20580;-75
2022/03/10 01:39:53;;;;;;;26.42;8.27;;;-7.20;99.90;;;;;;4996090;28;20090;-75
2022/03/10 01:42:22;;;;;;;27.42;9.60;;;-7.10;99.90;;;;;;4994189;28;20054;-78
2022/03/10 01:44:53;;;;;;;30.65;10.20;;;-7.00;99.90;;;;;;4993389;28;20514;-74
2022/03/10 01:47:22;;;;;;;30.80;10.73;;;-6.80;94.40;;;;;;4990979;28;20046;-71
2022/03/10 01:49:49;;;;;;;46.47;13.98;;;-6.80;97.20;;;;;;4973265;28;20137;-72
2022/03/10 01:52:20;;;;;;;51.80;14.00;;;-6.80;99.90;;;;;;4986580;28;20433;-73
2022/03/10 01:54:47;;;;;;;46.22;14.07;;;-6.80;99.90;;;;;;5002563;28;20052;-72
2022/03/10 01:57:17;;;;;;;43.35;13.38;;;-7.00;99.90;;;;;;4991270;28;20058;-72
2022/03/10 01:59:46;;;;;;;51.88;14.80;;;-7.10;99.90;;;;;;4993805;28;20078;-71
2022/03/10 02:02:13;;;;;;;52.25;13.80;;;-7.10;99.90;;;;;;4991863;28;20042;-71
2022/03/10 02:04:41;;;;;;;50.22;15.15;;;-7.20;99.90;;;;;;5001622;28;20062;-71
2022/03/10 02:10:16;;;;;;;48.90;14.43;;;-7.20;99.90;;;;;;4974988;28;20042;-75
2022/03/10 02:12:43;;;;;;;46.30;13.10;;;-7.30;99.90;;;;;;4999976;28;20259;-72
2022/03/10 02:18:05;;;;;;;56.50;11.60;;;-7.30;99.90;;;;;;4991068;28;20072;-71
2022/03/10 02:20:34;;;;;;;57.33;12.88;;;-7.30;99.90;;;;;;4991167;28;20065;-71
2022/03/10 02:23:03;;;;;;;35.30;9.23;;;-7.20;99.90;;;;;;4999433;28;20642;-71
2022/03/10 02:25:32;;;;;;;32.83;7.10;;;-7.10;99.90;;;;;;4973444;28;20454;-71
2022/03/10 02:27:59;;;;;;;31.67;8.65;;;-7.00;99.90;;;;;;4992312;28;20057;-72
2022/03/10 02:30:30;;;;;;;28.55;9.75;;;-6.80;94.70;;;;;;4984660;28;20128;-72
2022/03/10 02:33:01;;;;;;;36.03;11.98;;;-6.80;93.50;;;;;;4994816;28;20458;-71
2022/03/10 02:35:29;;;;;;;48.08;12.43;;;-6.70;96.60;;;;;;4990921;28;20054;-71
2022/03/10 02:37:57;;;;;;;23.88;7.50;;;-6.80;99.90;;;;;;5004695;28;20065;-71
2022/03/10 02:40:26;;;;;;;20.75;7.72;;;-6.80;95.90;;;;;;4985004;28;20526;-71
2022/03/10 02:42:54;;;;;;;27.98;8.70;;;-6.80;96.40;;;;;;4984923;28;20052;-71
2022/03/10 02:45:22;;;;;;;17.30;6.30;;;-6.80;96.20;;;;;;4978578;28;20053;-71
2022/03/10 02:47:49;;;;;;;16.45;6.05;;;-6.70;91.20;;;;;;5003977;28;20526;-72
2022/03/10 02:50:17;;;;;;;18.75;6.55;;;-6.60;88.30;;;;;;4994688;28;20050;-72
2022/03/10 02:52:45;;;;;;;13.38;5.60;;;-6.60;86.30;;;;;;4979432;28;20054;-71
2022/03/10 02:55:13;;;;;;;11.80;5.68;;;-6.60;81.40;;;;;;4985756;28;20046;-71
2022/03/10 02:57:41;;;;;;;35.10;12.02;;;-6.50;80.60;;;;;;4985628;28;20050;-71
2022/03/10 03:00:10;;;;;;;15.70;6.63;;;-6.50;81.50;;;;;;4994660;28;20116;-71
2022/03/10 03:02:39;;;;;;;18.65;7.10;;;-6.60;87.80;;;;;;4984468;28;20221;-71
2022/03/10 03:05:08;;;;;;;23.55;6.55;;;-6.60;84.70;;;;;;4989936;28;20050;-71
2022/03/10 03:07:36;;;;;;;20.83;8.63;;;-6.60;85.80;;;;;;4994298;28;20141;-76
2022/03/10 03:10:05;;;;;;;26.85;8.48;;;-6.60;86.90;;;;;;4993674;28;20082;-74
2022/03/10 03:12:33;;;;;;;26.42;7.97;;;-6.60;88.60;;;;;;4985037;28;20386;-70
2022/03/10 03:15:03;;;;;;;19.33;7.30;;;-6.60;90.10;;;;;;4991076;28;20051;-70
2022/03/10 03:17:31;;;;;;;30.33;8.60;;;-6.60;88.10;;;;;;4982308;28;20080;-71
2022/03/10 03:19:58;;;;;;;34.72;8.45;;;-6.60;84.10;;;;;;4991976;28;20050;-72
2022/03/10 03:22:26;;;;;;;43.28;10.90;;;-6.50;82.30;;;;;;4966244;28;20593;-76
2022/03/10 03:24:53;;;;;;;43.17;12.43;;;-6.50;80.00;;;;;;4989534;28;20050;-75
2022/03/10 03:27:21;;;;;;;23.10;10.00;;;-6.50;79.70;;;;;;4987744;28;20053;-76
2022/03/10 03:29:49;;;;;;;27.45;8.50;;;-6.60;79.20;;;;;;4990322;28;20589;-76
2022/03/10 03:32:18;;;;;;;21.63;6.40;;;-6.60;78.20;;;;;;4991275;28;20074;-77
2022/03/10 03:34:45;;;;;;;13.65;6.95;;;-6.50;81.80;;;;;;4971016;28;20061;-76
2022/03/10 03:37:13;;;;;;;34.10;9.88;;;-6.60;80.30;;;;;;4993441;28;20530;-70
2022/03/10 03:39:40;;;;;;;46.78;14.52;;;-6.60;81.70;;;;;;4991833;28;20125;-70
2022/03/10 03:42:08;;;;;;;40.05;12.98;;;-6.70;88.90;;;;;;4990567;28;20055;-70
2022/03/10 03:44:35;;;;;;;15.73;5.05;;;-6.70;89.00;;;;;;4982130;28;20057;-71
2022/03/10 03:47:03;;;;;;;46.00;12.48;;;-6.80;85.20;;;;;;4977140;28;20547;-71
2022/03/10 03:49:32;;;;;;;45.58;16.45;;;-6.80;87.50;;;;;;4972590;28;20149;-71
2022/03/10 03:51:59;;;;;;;56.40;17.63;;;-6.90;96.40;;;;;;4987629;28;20042;-71
2022/03/10 03:54:27;;;;;;;40.75;14.48;;;-7.10;96.90;;;;;;4988118;28;20160;-71
2022/03/10 03:56:54;;;;;;;35.80;10.68;;;-7.20;98.20;;;;;;4989059;28;20046;-70
2022/03/10 03:59:22;;;;;;;40.38;13.50;;;-7.30;99.50;;;;;;4998271;28;20446;-70
2022/03/10 04:01:49;;;;;;;64.93;16.13;;;-7.30;99.90;;;;;;4990991;28;20507;-70
2022/03/10 04:04:19;;;;;;;41.05;12.27;;;-7.40;99.90;;;;;;4989008;28;20050;-70
2022/03/10 04:06:48;;;;;;;16.17;6.63;;;-7.40;99.90;;;;;;4990006;28;20050;-71
2022/03/10 04:09:15;;;;;;;37.72;11.63;;;-7.40;95.30;;;;;;4988083;28;20086;-70
2022/03/10 04:11:43;;;;;;;37.58;11.45;;;-7.30;99.60;;;;;;4986866;28;20121;-70
2022/03/10 04:14:12;;;;;;;54.05;12.75;;;-7.30;99.90;;;;;;4989312;28;20124;-70
2022/03/10 04:16:40;;;;;;;52.13;15.27;;;-7.30;99.90;;;;;;4996985;28;20140;-69
2022/03/10 04:19:07;;;;;;;26.90;8.60;;;-7.30;99.90;;;;;;4980415;28;20050;-70
2022/03/10 04:21:35;;;;;;;21.63;8.02;;;-7.30;96.30;;;;;;4990647;28;20092;-73
2022/03/10 04:24:04;;;;;;;30.63;7.00;;;-7.20;92.50;;;;;;4978180;28;20050;-74
2022/03/10 04:26:32;;;;;;;18.70;6.70;;;-7.20;89.90;;;;;;4989909;28;20064;-74
2022/03/10 04:29:00;;;;;;;33.65;6.63;;;-7.10;86.70;;;;;;4990343;28;20045;-73
2022/03/10 04:31:27;;;;;;;35.72;7.97;;;-7.00;81.90;;;;;;4971178;28;20056;-73
2022/03/10 04:33:54;;;;;;;23.40;7.22;;;-6.90;80.30;;;;;;4989301;28;20058;-75
2022/03/10 04:36:23;;;;;;;21.70;6.35;;;-6.90;80.80;;;;;;4988322;28;20252;-76
2022/03/10 04:38:51;;;;;;;33.13;8.85;;;-6.80;79.00;;;;;;4990986;28;20096;-75
2022/03/10 04:41:20;;;;;;;23.52;6.93;;;-6.80;78.70;;;;;;4983818;28;20077;-75
2022/03/10 04:43:47;;;;;;;28.15;6.03;;;-6.80;77.80;;;;;;4985070;28;20511;-76
2022/03/10 04:46:17;;;;;;;32.05;6.75;;;-6.80;77.80;;;;;;4984540;28;20047;-75
2022/03/10 04:48:44;;;;;;;26.50;6.45;;;-6.80;78.10;;;;;;4983557;28;20566;-71
2022/03/10 04:51:13;;;;;;;40.30;8.40;;;-6.80;79.20;;;;;;4987192;28;20129;-69
2022/03/10 04:53:42;;;;;;;30.70;8.20;;;-6.70;78.10;;;;;;4989399;28;20058;-69
2022/03/10 04:56:11;;;;;;;34.50;9.63;;;-6.70;78.00;;;;;;4992448;28;20630;-70
2022/03/10 04:58:40;;;;;;;23.60;7.47;;;-6.70;77.90;;;;;;4991037;28;20392;-70
2022/03/10 05:01:08;;;;;;;22.30;8.23;;;-6.60;77.10;;;;;;4973001;28;20143;-70
2022/03/10 05:03:35;;;;;;;16.20;6.13;;;-6.60;75.80;;;;;;4986060;28;21703;-69
2022/03/10 05:06:03;;;;;;;26.90;7.20;;;-6.60;75.60;;;;;;4977615;28;20515;-71
2022/03/10 05:08:31;;;;;;;23.90;7.90;;;-6.60;75.50;;;;;;4986509;28;20054;-72
2022/03/10 05:10:59;;;;;;;33.40;8.30;;;-6.50;75.40;;;;;;5006183;28;20502;-72
2022/03/10 05:13:26;;;;;;;57.10;13.02;;;-6.50;76.10;;;;;;4988949;28;20050;-71
2022/03/10 05:15:56;;;;;;;49.03;12.30;;;-6.60;82.60;;;;;;4993009;28;20538;-72
2022/03/10 05:18:24;;;;;;;57.20;12.90;;;-6.60;83.10;;;;;;4998892;28;20321;-72
2022/03/10 05:20:51;;;;;;;39.42;10.35;;;-6.60;85.20;;;;;;5005165;28;20050;-72
2022/03/10 05:23:18;;;;;;;30.25;8.25;;;-6.60;83.20;;;;;;5004534;28;20722;-70
2022/03/10 05:25:46;;;;;;;33.17;9.73;;;-6.50;79.10;;;;;;4984898;28;20054;-72
2022/03/10 05:28:14;;;;;;;57.95;14.13;;;-6.50;77.20;;;;;;4994273;28;20046;-71
2022/03/10 05:30:43;;;;;;;81.00;17.52;;;-6.40;81.50;;;;;;4990149;28;20124;-71
2022/03/10 05:33:13;;;;;;;37.42;9.70;;;-6.50;89.40;;;;;;4972179;28;20062;-72
2022/03/10 05:35:41;;;;;;;62.60;14.43;;;-6.50;86.30;;;;;;4991630;28;20333;-74
2022/03/10 05:38:09;;;;;;;43.17;12.65;;;-6.50;87.20;;;;;;5007167;28;20054;-76
2022/03/10 05:40:37;;;;;;;46.72;11.90;;;-6.50;83.40;;;;;;4991312;28;20414;-76
2022/03/10 05:43:05;;;;;;;42.78;12.40;;;-6.40;79.90;;;;;;4989631;28;20149;-74
2022/03/10 05:45:32;;;;;;;49.28;13.45;;;-6.30;78.30;;;;;;4993863;28;20054;-75
2022/03/10 05:48:00;;;;;;;58.35;13.57;;;-6.30;77.60;;;;;;5006334;28;20049;-75
2022/03/10 05:50:29;;;;;;;62.50;14.07;;;-6.30;79.30;;;;;;5011964;28;20057;-76
2022/03/10 05:52:57;;;;;;;50.95;12.63;;;-6.20;78.30;;;;;;5003977;28;20049;-75
2022/03/10 05:55:26;;;;;;;44.75;12.35;;;-6.20;78.30;;;;;;5001142;28;20105;-75
2022/03/10 05:57:54;;;;;;;30.23;8.95;;;-6.10;77.20;;;;;;5000227;28;20042;-75
2022/03/10 06:00:23;;;;;;;34.88;9.75;;;-6.00;76.10;;;;;;4984652;28;20057;-75
2022/03/10 06:02:51;;;;;;;44.70;11.60;;;-5.90;74.90;;;;;;4979365;28;20530;-75
2022/03/10 06:05:19;;;;;;;38.10;10.13;;;-5.80;74.20;;;;;;4998095;28;20081;-74
2022/03/10 06:07:48;;;;;;;43.55;10.77;;;-5.80;73.50;;;;;;5006897;28;20602;-76
2022/03/10 06:10:15;;;;;;;41.67;10.52;;;-5.80;73.40;;;;;;5000947;28;20060;-74
2022/03/10 06:12:45;;;;;;;48.90;9.20;;;-5.70;73.00;;;;;;4984352;28;20076;-76
2022/03/10 06:15:13;;;;;;;42.65;8.32;;;-5.70;72.70;;;;;;5006273;28;20057;-76
2022/03/10 06:17:40;;;;;;;44.40;10.13;;;-5.60;71.80;;;;;;5001300;28;20046;-76
2022/03/10 06:20:12;;;;;;;45.75;12.43;;;-5.60;71.00;;;;;;5005645;28;20454;-72
2022/03/10 06:22:39;;;;;;;55.10;11.65;;;-5.50;71.30;;;;;;4998065;28;20180;-73
2022/03/10 06:25:09;;;;;;;61.35;11.63;;;-5.50;71.10;;;;;;4989762;28;20038;-71
2022/03/10 06:27:37;;;;;;;66.28;12.25;;;-5.40;70.90;;;;;;5004020;28;20058;-71
2022/03/10 06:30:07;;;;;;;55.65;13.32;;;-5.30;71.10;;;;;;5001708;28;20443;-72
2022/03/10 06:32:35;;;;;;;66.00;18.77;;;-5.20;70.90;;;;;;5003473;28;20046;-71
2022/03/10 06:35:02;;;;;;;79.95;18.77;;;-5.20;70.30;;;;;;4995184;28;20054;-71
2022/03/10 06:37:30;;;;;;;64.30;16.73;;;-5.10;69.80;;;;;;4984519;28;20459;-73
2022/03/10 06:39:58;;;;;;;61.70;19.05;;;-5.10;69.90;;;;;;4998305;28;20042;-71
2022/03/10 06:42:26;;;;;;;67.63;15.65;;;-5.00;69.50;;;;;;5000175;28;20557;-71
2022/03/10 06:44:54;;;;;;;98.32;19.98;;;-4.80;69.20;;;;;;4981699;28;20115;-71
2022/03/10 06:47:23;;;;;;;69.63;17.73;;;-4.80;68.60;;;;;;5002803;28;20046;-72
2022/03/10 06:49:51;;;;;;;59.83;14.82;;;-4.70;68.70;;;;;;4982857;28;20119;-74
2022/03/10 06:52:20;;;;;;;64.68;13.23;;;-4.70;68.20;;;;;;5001751;28;20112;-72
2022/03/10 06:54:47;;;;;;;48.33;10.55;;;-4.60;67.70;;;;;;4991795;28;20054;-72
2022/03/10 06:57:14;;;;;;;46.60;11.23;;;-4.50;65.80;;;;;;4991973;28;20546;-71
2022/03/10 06:59:43;;;;;;;63.58;12.05;;;-4.40;65.50;;;;;;4992827;28;20054;-72
2022/03/10 07:02:11;;;;;;;55.20;12.02;;;-4.30;66.40;;;;;;5007078;28;20050;-72
2022/03/10 07:04:40;;;;;;;54.30;12.27;;;-4.20;65.30;;;;;;4998535;28;20088;-73
2022/03/10 07:07:08;;;;;;;56.85;10.02;;;-4.10;64.70;;;;;;4979757;28;20383;-73
2022/03/10 07:09:35;;;;;;;37.50;6.38;;;-3.90;63.90;;;;;;5002611;28;20061;-76
2022/03/10 07:12:03;;;;;;;36.55;6.28;;;-3.10;61.80;;;;;;4995761;28;20050;-76
2022/03/10 07:14:31;;;;;;;44.80;7.68;;;-1.90;60.70;;;;;;4992668;28;20052;-75
2022/03/10 07:17:00;;;;;;;24.10;5.28;;;;;;;;;;4995497;28;20399;-76
2022/03/10 07:19:28;;;;;;;26.35;6.20;;;0.90;55.90;;;;;;4997696;28;20058;-76
2022/03/10 07:21:55;;;;;;;20.05;5.32;;;2.10;53.30;;;;;;4990299;28;20046;-76
2022/03/10 07:24:23;;;;;;;29.67;5.90;;;3.00;49.70;;;;;;5000046;28;20100;-76
2022/03/10 07:26:50;;;;;;;27.80;4.95;;;3.80;46.80;;;;;;5002754;28;20050;-72
2022/03/10 07:29:17;;;;;;;20.45;4.82;;;4.60;44.80;;;;;;4991189;28;20511;-71
2022/03/10 07:31:45;;;;;;;16.67;4.30;;;5.10;42.30;;;;;;4994068;28;20074;-71
2022/03/10 07:34:14;;;;;;;25.67;5.85;;;5.30;41.40;;;;;;4996604;28;20153;-72
2022/03/10 07:36:42;;;;;;;23.38;5.57;;;5.60;41.30;;;;;;4996506;28;20046;-72
2022/03/10 07:39:11;;;;;;;37.42;5.95;;;;;;;;;;4992371;28;20062;-72
2022/03/10 07:41:39;;;;;;;37.17;6.13;;;6.40;39.20;;;;;;4991397;28;20050;-72
2022/03/10 07:44:13;;;;;;;29.55;6.00;;;6.70;39.00;;;;;;4999346;28;20050;-72
2022/03/10 07:46:41;;;;;;;25.48;5.20;;;6.90;39.00;;;;;;5000945;28;20057;-72
2022/03/10 07:49:08;;;;;;;25.13;5.13;;;7.00;38.20;;;;;;4990929;28;20069;-72
2022/03/10 07:51:42;;;;;;;14.38;4.65;;;6.80;37.90;;;;;;4953008;28;20459;-72
2022/03/10 07:54:11;;;;;;;25.85;4.80;;;6.30;37.90;;;;;;4971450;28;20061;-72
2022/03/10 07:56:42;;;;;;;14.57;5.55;;;5.60;38.20;;;;;;5000060;28;20165;-72
2022/03/10 07:59:12;;;;;;;29.38;5.65;;;5.20;39.00;;;;;;4984638;28;20568;-73
2022/03/10 08:01:40;;;;;;;25.02;5.00;;;5.20;39.90;;;;;;4954249;28;20066;-72
2022/03/10 08:04:09;;;;;;;20.58;4.85;;;5.20;39.60;;;;;;4983547;28;20053;-73
2022/03/10 08:06:46;;;;;;;20.02;4.70;;;5.40;39.30;;;;;;5002694;28;20080;-72
2022/03/10 08:09:18;;;;;;;20.52;4.78;;;5.50;39.50;;;;;;5007198;28;20455;-72
2022/03/10 08:11:46;;;;;;;24.35;4.78;;;5.60;40.00;;;;;;4988925;28;20049;-73
2022/03/10 08:14:15;;;;;;;25.17;5.90;;;6.00;39.50;;;;;;4993800;28;20042;-76
2022/03/10 08:16:45;;;;;;;17.98;5.50;;;6.50;39.00;;;;;;5006736;28;20073;-77
2022/03/10 08:19:12;;;;;;;21.73;5.20;;;6.80;38.40;;;;;;4979928;28;20053;-76
2022/03/10 08:21:41;;;;;;;21.77;5.35;;;7.50;38.20;;;;;;4988549;28;20645;-76
2022/03/10 08:24:10;;;;;;;21.58;4.80;;;8.20;37.40;;;;;;5004410;28;20085;-76
2022/03/10 08:26:38;;;;;;;21.83;6.53;;;9.00;36.00;;;;;;5005611;28;20061;-76
2022/03/10 08:29:05;;;;;;;23.30;6.28;;;9.40;34.90;;;;;;4989849;28;20056;-77
2022/03/10 08:31:33;;;;;;;22.30;5.65;;;9.50;34.70;;;;;;4989372;28;20695;-76
2022/03/10 08:34:00;;;;;;;14.63;4.43;;;10.00;34.50;;;;;;4991446;28;20148;-71
2022/03/10 08:36:30;;;;;;;22.38;4.72;;;10.40;32.40;;;;;;4987998;28;20558;-72
2022/03/10 08:38:59;;;;;;;19.42;5.45;;;10.20;32.00;;;;;;4991709;28;20068;-73
2022/03/10 08:41:26;;;;;;;17.13;5.63;;;10.40;32.50;;;;;;5003485;28;20054;-72
2022/03/10 08:43:54;;;;;;;20.27;5.55;;;10.30;33.20;;;;;;5004520;28;20042;-72
2022/03/10 08:46:21;;;;;;;15.23;4.53;;;10.40;31.70;;;;;;4987562;28;20454;-73
2022/03/10 08:48:49;;;;;;;15.93;5.05;;;10.30;32.50;;;;;;4990839;28;20054;-72
2022/03/10 08:51:17;;;;;;;24.58;4.65;;;10.60;32.00;;;;;;4988825;28;20146;-73
2022/03/10 08:53:45;;;;;;;18.95;5.10;;;10.80;31.30;;;;;;4993339;28;20474;-72
2022/03/10 08:56:14;;;;;;;11.90;4.68;;;10.60;32.20;;;;;;4990417;28;20042;-72
2022/03/10 08:58:41;;;;;;;11.70;5.05;;;11.20;31.90;;;;;;4998495;28;20064;-73
2022/03/10 09:01:09;;;;;;;17.52;4.47;;;11.60;30.70;;;;;;5002720;28;20597;-74
2022/03/10 09:03:36;;;;;;;16.70;4.45;;;11.50;30.40;;;;;;5006951;28;20510;-72
2022/03/10 09:06:04;;;;;;;30.90;4.68;;;11.40;31.50;;;;;;5007043;28;20133;-73
2022/03/10 09:08:32;;;;;;;30.05;7.28;;;11.90;31.20;;;;;;5002341;28;20050;-74
2022/03/10 09:11:00;;;;;;;18.92;5.60;;;12.40;31.30;;;;;;4996827;28;20046;-73
2022/03/10 09:13:29;;;;;;;22.55;5.38;;;12.70;30.40;;;;;;4987837;28;20472;-72
2022/03/10 09:15:57;;;;;;;14.88;4.05;;;13.00;30.00;;;;;;5005870;28;20050;-74
2022/03/10 09:18:24;;;;;;;13.23;4.35;;;13.40;29.40;;;;;;4995719;28;20054;-75
2022/03/10 09:20:52;;;;;;;14.77;3.80;;;13.40;29.50;;;;;;5001163;28;20035;-75
2022/03/10 09:23:20;;;;;;;20.52;5.70;;;13.20;29.10;;;;;;4978454;28;20059;-75
2022/03/10 09:25:47;;;;;;;23.25;4.93;;;13.00;28.80;;;;;;4973628;28;20043;-75
2022/03/10 09:28:14;;;;;;;17.40;5.05;;;12.70;29.90;;;;;;4992950;28;20450;-74
2022/03/10 09:30:44;;;;;;;13.57;4.85;;;12.60;29.80;;;;;;5012241;28;20129;-74
2022/03/10 09:33:11;;;;;;;17.30;4.22;;;12.80;29.10;;;;;;5012521;28;20554;-74
2022/03/10 09:35:39;;;;;;;15.10;4.10;;;12.90;30.60;;;;;;4997893;28;20042;-74
2022/03/10 09:38:08;;;;;;;19.08;5.85;;;13.10;29.30;;;;;;5003730;28;20400;-74
2022/03/10 09:40:36;;;;;;;17.63;5.18;;;13.20;29.20;;;;;;4994067;28;20054;-73
2022/03/10 09:43:03;;;;;;;13.25;4.93;;;13.30;29.00;;;;;;5012303;28;20057;-74
2022/03/10 09:45:35;;;;;;;20.95;4.68;;;13.50;29.10;;;;;;4979641;28;20046;-74
2022/03/10 09:48:10;;;;;;;12.15;4.82;;;13.90;29.60;;;;;;4992191;28;20058;-73
2022/03/10 09:50:38;;;;;;;19.75;4.40;;;14.00;28.90;;;;;;4986078;28;20046;-74
2022/03/10 09:53:11;;;;;;;20.10;4.30;;;13.30;29.40;;;;;;5009239;28;20050;-74
2022/03/10 09:55:39;;;;;;;27.40;5.43;;;12.50;30.50;;;;;;4982213;28;20410;-75
2022/03/10 09:58:07;;;;;;;22.27;5.38;;;11.90;31.00;;;;;;5003407;28;20593;-74
2022/03/10 10:00:35;;;;;;;16.60;5.00;;;11.70;31.40;;;;;;4998186;28;20054;-73
2022/03/10 10:03:05;;;;;;;15.52;5.03;;;11.60;31.20;;;;;;4995742;28;20034;-74
2022/03/10 10:05:37;;;;;;;18.30;6.07;;;11.30;31.70;;;;;;5002994;28;20054;-75
2022/03/10 10:08:13;;;;;;;27.80;5.75;;;10.50;32.80;;;;;;4999084;28;20050;-73
2022/03/10 10:10:45;;;;;;;38.95;6.28;;;9.90;33.40;;;;;;4992872;28;20058;-75
2022/03/10 10:13:26;;;;;;;21.98;6.85;;;10.30;33.10;;;;;;4974269;28;20955;-75
2022/03/10 10:15:58;;;;;;;32.50;7.97;;;10.90;33.20;;;;;;4990855;28;20054;-74
2022/03/10 10:18:29;;;;;;;41.80;8.95;;;11.30;32.80;;;;;;4991332;28;20042;-75
2022/03/10 10:20:57;;;;;;;25.48;7.55;;;11.80;32.70;;;;;;4999446;28;20082;-74
2022/03/10 10:23:31;;;;;;;29.27;7.40;;;12.70;31.40;;;;;;4994556;28;20069;-74
2022/03/10 10:26:01;;;;;;;23.58;7.25;;;13.60;30.50;;;;;;5011503;28;20054;-74
2022/03/10 10:28:31;;;;;;;20.40;7.25;;;13.80;30.80;;;;;;4994980;28;20533;-73
2022/03/10 10:31:02;;;;;;;26.50;6.43;;;14.00;30.10;;;;;;5012686;28;20060;-72
2022/03/10 10:33:33;;;;;;;20.08;7.28;;;13.60;30.00;;;;;;4986587;28;20053;-72
2022/03/10 10:36:16;;;;;;;25.27;7.03;;;13.00;31.60;;;;;;5009647;28;20061;-73
2022/03/10 10:38:49;;;;;;;25.50;7.47;;;13.30;31.60;;;;;;5002671;28;20058;-78
2022/03/10 10:41:22;;;;;;;29.08;7.18;;;14.00;30.50;;;;;;4999357;28;20049;-78
2022/03/10 10:43:53;;;;;;;25.00;6.78;;;14.20;29.70;;;;;;4997755;28;20050;-78
2022/03/10 10:46:43;;;;;;;22.65;5.38;;;14.20;29.40;;;;;;5000005;28;20128;-74
2022/03/10 10:49:15;;;;;;;18.17;6.88;;;13.90;29.50;;;;;;4996720;28;20058;-74
2022/03/10 10:51:45;;;;;;;22.08;6.75;;;13.20;31.40;;;;;;4998261;28;20046;-73
2022/03/10 10:54:26;;;;;;;27.45;6.40;;;12.70;30.60;;;;;;4984252;28;20132;-78
2022/03/10 10:56:56;;;;;;;26.52;7.80;;;12.20;31.10;;;;;;5004042;28;20135;-78
2022/03/10 10:59:28;;;;;;;21.55;6.15;;;12.20;31.70;;;;;;5004821;28;20057;-78
2022/03/10 11:02:08;;;;;;;30.10;7.45;;;13.10;31.20;;;;;;5004774;28;20053;-77
2022/03/10 11:04:38;;;;;;;21.83;6.95;;;13.70;30.60;;;;;;4982576;28;20419;-81
2022/03/10 11:07:08;;;;;;;24.75;6.63;;;13.70;31.00;;;;;;4970307;28;20140;-77
2022/03/10 11:09:42;;;;;;;14.23;5.25;;;14.10;30.10;;;;;;4977755;28;20051;-79
2022/03/10 11:12:13;;;;;;;17.30;5.82;;;14.60;29.30;;;;;;4987882;28;20054;-78
2022/03/10 11:14:41;;;;;;;24.48;5.70;;;14.10;29.40;;;;;;4989790;28;20121;-80
2022/03/10 11:17:10;;;;;;;18.75;5.47;;;13.10;29.30;;;;;;4984508;28;20039;-80
2022/03/10 11:19:44;;;;;;;16.20;5.32;;;12.00;30.00;;;;;;4991802;28;20058;-79
2022/03/10 11:22:23;;;;;;;16.98;5.65;;;11.20;30.60;;;;;;5009031;28;20077;-79
2022/03/10 11:25:13;;;;;;;26.98;6.30;;;10.50;32.30;;;;;;5008236;28;20141;-79
2022/03/10 11:27:45;;;;;;;19.95;6.25;;;10.50;32.50;;;;;;4986613;28;20137;-79
2022/03/10 11:30:14;;;;;;;22.02;5.82;;;10.80;32.40;;;;;;5004841;28;20153;-77
2022/03/10 11:32:41;;;;;;;9.18;4.20;;;11.30;32.40;;;;;;5006441;28;20471;-76
2022/03/10 11:35:17;;;;;;;16.90;5.30;;;11.40;31.10;;;;;;4998389;28;20074;-78
2022/03/10 11:37:53;;;;;;;16.98;4.82;;;11.40;31.90;;;;;;4991838;28;20070;-78
2022/03/10 11:40:44;;;;;;;12.05;4.38;;;12.30;30.70;;;;;;5004061;28;20058;-80
2022/03/10 11:43:25;;;;;;;10.52;4.43;;;13.20;30.00;;;;;;4981169;28;20050;-78
2022/03/10 11:46:18;;;;;;;18.42;6.32;;;13.60;30.00;;;;;;4987751;28;20469;-78
2022/03/10 11:49:06;;;;;;;18.75;7.68;;;14.40;29.00;;;;;;4972681;28;20339;-79
2022/03/10 11:51:48;;;;;;;19.35;5.55;;;14.00;28.90;;;;;;4989975;28;20085;-79
2022/03/10 11:54:26;;;;;;;24.70;7.78;;;13.80;29.50;;;;;;5010803;28;20165;-79
2022/03/10 11:57:06;;;;;;;11.15;4.35;;;13.60;29.30;;;;;;4998605;28;20078;-78
2022/03/10 11:59:50;;;;;;;24.25;6.38;;;12.80;29.70;;;;;;4981773;28;20066;-79
2022/03/10 12:02:43;;;;;;;14.82;5.60;;;12.50;30.10;;;;;;4955832;28;20108;-81
2022/03/10 12:05:15;;;;;;;21.42;6.70;;;12.50;31.10;;;;;;4988076;28;20661;-78
2022/03/10 12:07:46;;;;;;;17.42;6.43;;;12.70;29.90;;;;;;4990213;28;20060;-78
2022/03/10 12:10:15;;;;;;;13.35;5.32;;;12.90;30.10;;;;;;5002489;28;20050;-77
2022/03/10 12:12:45;;;;;;;10.50;5.30;;;13.20;30.20;;;;;;4970217;28;20055;-77
2022/03/10 12:15:41;;;;;;;18.55;6.18;;;13.40;29.50;;;;;;4988897;28;20054;-78
2022/03/10 12:18:18;;;;;;;10.20;4.20;;;13.00;29.50;;;;;;4999848;28;20049;-79
2022/03/10 12:20:48;;;;;;;13.40;5.45;;;12.70;29.40;;;;;;4999659;28;20050;-78
2022/03/10 12:23:19;;;;;;;14.85;5.47;;;12.80;29.80;;;;;;5003233;28;20050;-77
2022/03/10 12:25:50;;;;;;;12.35;5.80;;;13.30;29.70;;;;;;5005901;28;20137;-79
2022/03/10 12:28:29;;;;;;;14.80;6.00;;;13.70;29.90;;;;;;5006460;28;20057;-78
2022/03/10 12:31:04;;;;;;;10.85;4.35;;;14.40;29.40;;;;;;4999886;28;20165;-78
2022/03/10 12:33:33;;;;;;;13.88;4.85;;;14.40;28.40;;;;;;4974074;28;20123;-77
2022/03/10 12:36:02;;;;;;;7.38;4.22;;;13.50;28.70;;;;;;4999353;28;20128;-76
2022/03/10 12:38:44;;;;;;;9.50;4.63;;;12.40;29.10;;;;;;4988179;28;20078;-77
2022/03/10 12:41:11;;;;;;;16.65;6.75;;;11.60;30.00;;;;;;4996498;28;20502;-76
2022/03/10 12:43:39;;;;;;;23.80;6.18;;;11.40;30.80;;;;;;4984520;28;20050;-78
2022/03/10 12:46:08;;;;;;;9.80;4.13;;;11.10;30.50;;;;;;4986939;28;20593;-74
2022/03/10 12:48:48;;;;;;;21.77;6.05;;;10.80;30.80;;;;;;4985576;28;20054;-73
2022/03/10 12:51:30;;;;;;;12.05;6.32;;;10.30;31.50;;;;;;4975583;28;20058;-77
2022/03/10 12:54:08;;;;;;;11.57;5.45;;;9.80;32.30;;;;;;4998275;28;20611;-77